createdAt,value
2023-09-12T00:01:13.690Z,4.03
2023-09-12T00:03:41.496Z,5.33
2023-09-12T00:06:08.945Z,5.77
2023-09-12T00:08:36.326Z,5.87
2023-09-12T00:11:07.702Z,8.50
2023-09-12T00:13:35.156Z,11.17
2023-09-12T00:16:03.401Z,5.13
2023-09-12T00:18:31.297Z,6.22
2023-09-12T00:21:02.199Z,5.37
2023-09-12T00:23:29.894Z,5.23
2023-09-12T00:25:58.548Z,4.07
2023-09-12T00:28:26.097Z,4.15
2023-09-12T00:30:54.103Z,4.60
2023-09-12T00:33:22.033Z,3.45
2023-09-12T00:35:49.505Z,5.37
2023-09-12T00:38:16.822Z,4.97
2023-09-12T00:40:44.464Z,5.90
2023-09-12T00:43:12.068Z,7.20
2023-09-12T00:45:39.819Z,4.50
2023-09-12T00:48:09.166Z,3.30
2023-09-12T00:50:37.924Z,5.55
2023-09-12T00:53:05.776Z,6.80
2023-09-12T00:55:36.224Z,3.80
2023-09-12T00:58:04.102Z,6.63
2023-09-12T01:00:31.873Z,5.13
2023-09-12T01:02:59.851Z,5.90
2023-09-12T01:05:28.450Z,6.27
2023-09-12T01:07:57.038Z,6.87
2023-09-12T01:10:24.919Z,6.82
2023-09-12T01:12:53.423Z,5.87
2023-09-12T01:17:50.851Z,4.60
2023-09-12T01:20:35.441Z,6.40
2023-09-12T01:23:41.889Z,6.43
2023-09-12T01:26:12.227Z,4.47
2023-09-12T01:28:44.333Z,5.73
2023-09-12T01:31:14.466Z,5.40
2023-09-12T01:33:42.344Z,5.30
2023-09-12T01:36:11.714Z,4.83
2023-09-12T01:38:39.401Z,7.87
2023-09-12T01:41:08.099Z,4.67
2023-09-12T01:43:37.690Z,9.97
2023-09-12T01:46:05.259Z,8.73
2023-09-12T01:48:35.979Z,7.10
2023-09-12T01:51:05.544Z,6.60
2023-09-12T01:53:35.664Z,6.37
2023-09-12T01:56:03.319Z,4.23
2023-09-12T01:58:32.744Z,7.73
2023-09-12T02:01:00.840Z,4.37
2023-09-12T02:03:28.760Z,4.73
2023-09-12T02:05:56.212Z,4.50
2023-09-12T02:08:23.653Z,3.43
2023-09-12T02:10:51.412Z,4.80
2023-09-12T02:13:18.983Z,6.87
2023-09-12T02:15:46.562Z,3.97
2023-09-12T02:18:14.526Z,4.17
2023-09-12T02:20:47.051Z,5.30
2023-09-12T02:23:16.457Z,6.20
2023-09-12T02:25:44.244Z,4.40
2023-09-12T02:28:11.726Z,5.23
2023-09-12T02:30:42.148Z,6.47
2023-09-12T02:33:10.730Z,4.97
2023-09-12T02:35:38.205Z,6.53
2023-09-12T02:38:05.599Z,4.30
2023-09-12T02:40:33.434Z,6.57
2023-09-12T02:43:00.899Z,6.43
2023-09-12T02:45:28.626Z,7.87
2023-09-12T02:47:56.601Z,8.70
2023-09-12T02:50:24.146Z,7.80
2023-09-12T02:52:51.671Z,4.20
2023-09-12T02:55:19.589Z,3.70
2023-09-12T02:57:48.302Z,5.53
2023-09-12T03:00:15.942Z,7.68
2023-09-12T03:02:43.863Z,4.83
2023-09-12T03:05:12.162Z,3.80
2023-09-12T03:07:39.482Z,6.33
2023-09-12T03:10:07.686Z,4.60
2023-09-12T03:12:38.320Z,6.27
2023-09-12T03:15:08.945Z,5.80
2023-09-12T03:17:38.503Z,5.93
2023-09-12T03:20:09.574Z,9.67
2023-09-12T03:22:40.135Z,5.03
2023-09-12T03:25:08.296Z,15.23
2023-09-12T03:27:35.921Z,9.60
2023-09-12T03:30:05.276Z,4.30
2023-09-12T03:35:00.662Z,5.40
2023-09-12T03:37:29.834Z,3.43
2023-09-12T03:39:58.133Z,5.10
2023-09-12T03:42:31.983Z,5.70
2023-09-12T03:45:06.947Z,7.67
2023-09-12T03:47:34.439Z,3.33
2023-09-12T03:50:02.101Z,6.97
2023-09-12T03:52:30.108Z,6.53
2023-09-12T03:54:58.904Z,6.33
2023-09-12T03:57:29.122Z,7.43
2023-09-12T03:59:57.140Z,6.47
2023-09-12T04:02:24.868Z,4.57
2023-09-12T04:04:53.364Z,5.03
2023-09-12T04:07:20.982Z,4.70
2023-09-12T04:09:48.469Z,7.87
2023-09-12T04:12:16.274Z,8.97
2023-09-12T04:14:43.962Z,5.80
2023-09-12T04:17:11.547Z,8.70
2023-09-12T04:19:39.258Z,5.27
2023-09-12T04:22:07.069Z,3.50
2023-09-12T04:24:34.748Z,4.23
2023-09-12T04:27:02.730Z,8.60
2023-09-12T04:29:30.488Z,8.00
2023-09-12T04:32:00.940Z,4.93
2023-09-12T04:34:29.126Z,5.27
2023-09-12T04:36:56.623Z,4.97
2023-09-12T04:39:24.522Z,5.63
2023-09-12T04:41:52.357Z,4.73
2023-09-12T04:44:19.774Z,7.13
2023-09-12T04:46:47.832Z,11.17
2023-09-12T04:49:15.938Z,6.18
2023-09-12T04:51:44.234Z,5.03
2023-09-12T04:54:11.920Z,6.35
2023-09-12T04:56:39.703Z,9.13
2023-09-12T04:59:08.064Z,9.53
2023-09-12T05:01:35.684Z,5.28
2023-09-12T05:04:04.535Z,12.30
2023-09-12T05:06:35.642Z,6.18
2023-09-12T05:09:04.489Z,6.20
2023-09-12T05:11:32.174Z,7.23
2023-09-12T05:14:01.173Z,13.73
2023-09-12T05:18:56.776Z,5.93
2023-09-12T05:21:24.750Z,13.60
2023-09-12T05:23:52.787Z,10.43
2023-09-12T05:26:23.286Z,8.73
2023-09-12T05:28:51.657Z,9.57
2023-09-12T05:31:20.223Z,7.22
2023-09-12T05:33:48.382Z,7.40
2023-09-12T05:36:16.055Z,5.57
2023-09-12T05:38:44.163Z,6.67
2023-09-12T05:41:11.866Z,5.67
2023-09-12T05:43:39.245Z,4.03
2023-09-12T05:46:07.046Z,6.40
2023-09-12T05:48:34.641Z,5.80
2023-09-12T05:51:02.191Z,5.87
2023-09-12T05:53:31.824Z,9.07
2023-09-12T05:55:59.344Z,5.07
2023-09-12T05:58:27.073Z,6.10
2023-09-12T06:00:54.962Z,6.07
2023-09-12T06:03:24.092Z,6.07
2023-09-12T06:05:52.322Z,6.23
2023-09-12T06:08:19.792Z,5.37
2023-09-12T06:10:47.676Z,6.97
2023-09-12T06:13:15.082Z,5.47
2023-09-12T06:15:43.035Z,8.07
2023-09-12T06:18:11.025Z,5.47
2023-09-12T06:20:39.237Z,4.80
2023-09-12T06:23:06.776Z,5.70
2023-09-12T06:25:36.649Z,3.97
2023-09-12T06:28:04.582Z,8.63
2023-09-12T06:30:32.098Z,14.23
2023-09-12T06:33:02.524Z,5.37
2023-09-12T06:35:30.481Z,6.90
2023-09-12T06:37:58.189Z,4.23
2023-09-12T06:40:26.019Z,5.57
2023-09-12T06:42:53.374Z,7.13
2023-09-12T06:45:20.824Z,7.13
2023-09-12T06:47:48.744Z,8.30
2023-09-12T06:50:16.605Z,6.03
2023-09-12T06:52:44.500Z,8.10
2023-09-12T06:55:12.488Z,4.53
2023-09-12T06:57:40.682Z,6.63
2023-09-12T07:00:08.957Z,7.25
2023-09-12T07:02:36.803Z,6.75
2023-09-12T07:05:05.151Z,5.70
2023-09-12T07:07:32.704Z,5.15
2023-09-12T07:10:16.155Z,6.97
2023-09-12T07:12:44.101Z,6.40
2023-09-12T07:15:11.936Z,4.62
2023-09-12T07:17:39.420Z,4.20
2023-09-12T07:20:12.737Z,3.67
2023-09-12T07:22:43.726Z,4.82
2023-09-12T07:25:13.226Z,4.35
2023-09-12T07:27:41.219Z,5.25
2023-09-12T07:30:09.414Z,6.72
2023-09-12T07:32:37.138Z,5.03
2023-09-12T07:35:05.537Z,10.88
2023-09-12T07:37:33.509Z,8.52
2023-09-12T07:40:01.238Z,4.40
2023-09-12T07:42:29.591Z,4.85
2023-09-12T07:44:57.014Z,4.80
2023-09-12T07:47:24.424Z,4.87
2023-09-12T07:49:55.230Z,5.00
2023-09-12T07:52:23.946Z,5.65
2023-09-12T07:54:54.041Z,21.15
2023-09-12T07:57:21.582Z,6.32
2023-09-12T07:59:48.932Z,7.30
2023-09-12T08:02:16.840Z,5.25
2023-09-12T08:04:44.770Z,4.57
2023-09-12T08:07:12.502Z,4.82
2023-09-12T08:09:54.352Z,3.35
2023-09-12T08:12:23.984Z,29.83
2023-09-12T08:14:51.361Z,4.82
2023-09-12T08:17:19.012Z,5.93
2023-09-12T08:19:46.926Z,4.25
2023-09-12T08:22:14.779Z,4.93
2023-09-12T08:24:42.449Z,3.87
2023-09-12T08:27:11.309Z,9.75
2023-09-12T08:32:07.174Z,7.78
2023-09-12T08:34:35.080Z,8.25
2023-09-12T08:37:02.645Z,5.37
2023-09-12T08:39:43.321Z,5.22
2023-09-12T08:42:16.168Z,4.32
2023-09-12T08:44:44.677Z,5.97
2023-09-12T08:47:13.618Z,4.90
2023-09-12T08:49:43.836Z,5.70
2023-09-12T08:52:11.729Z,6.07
2023-09-12T08:54:39.167Z,5.30
2023-09-12T08:57:08.447Z,8.88
2023-09-12T08:59:38.537Z,11.10
2023-09-12T09:02:10.236Z,5.47
2023-09-12T09:04:40.676Z,4.43
2023-09-12T09:07:10.340Z,6.15
2023-09-12T09:09:38.140Z,7.68
2023-09-12T09:12:09.992Z,9.82
2023-09-12T09:14:37.995Z,6.25
2023-09-12T09:17:05.569Z,4.60
2023-09-12T09:19:51.126Z,8.80
2023-09-12T09:22:18.989Z,5.60
2023-09-12T09:24:46.492Z,4.05
2023-09-12T09:27:34.194Z,4.07
2023-09-12T09:30:02.068Z,8.25
2023-09-12T09:32:29.511Z,6.12
2023-09-12T09:34:56.893Z,5.45
2023-09-12T09:37:24.731Z,9.18
2023-09-12T09:39:53.739Z,8.90
2023-09-12T09:42:21.434Z,3.75
2023-09-12T09:44:50.206Z,7.60
2023-09-12T09:47:20.248Z,6.57
2023-09-12T09:49:48.786Z,8.77
2023-09-12T09:52:16.494Z,6.25
2023-09-12T09:54:47.099Z,7.60
2023-09-12T09:57:14.466Z,6.62
2023-09-12T09:59:42.463Z,5.12
2023-09-12T10:02:20.669Z,7.00
2023-09-12T10:05:00.410Z,4.30
2023-09-12T10:07:29.978Z,6.78
2023-09-12T10:09:59.399Z,4.10
2023-09-12T10:12:29.986Z,9.70
2023-09-12T10:15:00.712Z,5.68
2023-09-12T10:17:37.049Z,4.65
2023-09-12T10:20:12.669Z,5.50
2023-09-12T10:23:38.372Z,8.35
2023-09-12T10:26:06.582Z,3.47
2023-09-12T10:28:34.355Z,8.13
2023-09-12T10:31:03.200Z,4.18
2023-09-12T10:33:32.830Z,4.00
2023-09-12T10:36:01.107Z,5.03
2023-09-12T10:38:31.366Z,7.75
2023-09-12T10:41:01.996Z,4.80
2023-09-12T10:43:31.263Z,6.75
2023-09-12T10:46:00.727Z,5.35
2023-09-12T10:48:28.173Z,4.78
2023-09-12T10:51:00.696Z,6.82
2023-09-12T10:53:31.312Z,6.95
2023-09-12T10:56:14.042Z,7.47
2023-09-12T10:59:07.746Z,7.12
2023-09-12T11:01:43.700Z,5.95
2023-09-12T11:04:20.680Z,7.37
2023-09-12T11:06:51.466Z,5.22
2023-09-12T11:09:23.462Z,4.65
2023-09-12T11:11:56.907Z,6.10
2023-09-12T11:14:25.613Z,5.82
2023-09-12T11:19:54.551Z,12.15
2023-09-12T11:22:30.546Z,13.60
2023-09-12T11:24:58.553Z,6.43
2023-09-12T11:27:32.408Z,6.93
2023-09-12T11:30:07.354Z,4.45
2023-09-12T11:32:38.242Z,5.30
2023-09-12T11:35:08.556Z,3.85
2023-09-12T11:37:39.090Z,3.78
2023-09-12T11:40:12.983Z,6.87
2023-09-12T11:42:44.905Z,5.82
2023-09-12T11:45:13.131Z,10.20
2023-09-12T11:47:44.767Z,5.40
2023-09-12T11:50:36.808Z,5.50
2023-09-12T11:53:07.068Z,6.15
2023-09-12T11:55:46.699Z,7.25
2023-09-12T11:58:19.660Z,3.17
2023-09-12T12:00:51.257Z,6.70
2023-09-12T12:03:23.789Z,6.68
2023-09-12T12:05:52.681Z,5.72
2023-09-12T12:10:52.306Z,4.03
2023-09-12T12:13:21.283Z,5.53
2023-09-12T12:15:49.112Z,6.00
2023-09-12T12:18:16.761Z,8.15
2023-09-12T12:20:44.600Z,4.43
2023-09-12T12:23:12.399Z,4.27
2023-09-12T12:25:39.799Z,5.25
2023-09-12T12:28:07.555Z,5.25
2023-09-12T12:30:36.890Z,4.18
2023-09-12T12:33:37.560Z,4.60
2023-09-12T12:36:04.032Z,4.15
2023-09-12T12:38:46.666Z,4.10
2023-09-12T12:41:41.860Z,7.05
2023-09-12T12:44:17.309Z,6.93
2023-09-12T12:49:24.389Z,6.87
2023-09-12T12:51:54.471Z,7.00
2023-09-12T12:54:24.518Z,7.50
2023-09-12T12:56:54.291Z,10.38
2023-09-12T12:59:21.676Z,4.68
2023-09-12T13:01:51.135Z,4.90
2023-09-12T13:04:20.530Z,6.75
2023-09-12T13:06:48.158Z,6.37
2023-09-12T13:09:18.231Z,5.65
2023-09-12T13:11:47.041Z,10.45
2023-09-12T13:14:15.659Z,8.07
2023-09-12T13:16:43.324Z,8.88
2023-09-12T13:19:12.622Z,8.73
2023-09-12T13:21:40.461Z,5.97
2023-09-12T13:24:08.177Z,10.30
2023-09-12T13:26:35.962Z,5.60
2023-09-12T13:29:03.997Z,5.10
2023-09-12T13:31:31.455Z,6.95
2023-09-12T13:33:59.414Z,7.90
2023-09-12T13:36:26.851Z,9.70
2023-09-12T13:38:54.199Z,6.47
2023-09-12T13:41:23.555Z,7.93
2023-09-12T13:43:50.919Z,7.90
2023-09-12T13:46:18.417Z,8.03
2023-09-12T13:51:16.272Z,9.63
2023-09-12T13:53:43.992Z,7.95
2023-09-12T13:58:42.976Z,7.35
2023-09-12T14:01:16.703Z,5.07
2023-09-12T14:03:55.125Z,11.52
2023-09-12T14:06:23.333Z,5.45
2023-09-12T14:08:50.938Z,5.37
2023-09-12T14:11:30.385Z,4.82
2023-09-12T14:14:11.132Z,4.87
2023-09-12T14:16:42.084Z,8.45
2023-09-12T14:19:11.873Z,8.82
2023-09-12T14:21:39.660Z,5.22
2023-09-12T14:24:08.171Z,10.50
2023-09-12T14:29:03.380Z,5.50
2023-09-12T14:31:31.407Z,4.60
2023-09-12T14:33:59.260Z,4.75
2023-09-12T14:36:26.627Z,4.68
2023-09-12T14:38:54.309Z,6.50
2023-09-12T14:41:21.692Z,6.93
2023-09-12T14:43:49.044Z,4.00
2023-09-12T14:46:16.880Z,7.70
2023-09-12T14:48:56.500Z,3.03
2023-09-12T14:51:33.760Z,5.65
2023-09-12T14:54:02.784Z,4.35
2023-09-12T14:56:31.695Z,5.60
2023-09-12T14:58:59.064Z,3.87
2023-09-12T15:01:26.604Z,5.68
2023-09-12T15:06:22.486Z,6.72
2023-09-12T15:08:53.202Z,4.40
2023-09-12T15:11:22.010Z,12.00
2023-09-12T15:13:50.051Z,5.47
2023-09-12T15:16:18.861Z,9.70
2023-09-12T15:18:47.751Z,4.40
2023-09-12T15:21:15.251Z,6.90
2023-09-12T15:23:42.960Z,5.97
2023-09-12T15:26:11.152Z,4.82
2023-09-12T15:31:06.586Z,6.45
2023-09-12T15:33:34.487Z,6.22
2023-09-12T15:36:02.249Z,7.20
2023-09-12T15:38:30.103Z,3.42
2023-09-12T15:40:59.676Z,5.57
2023-09-12T15:43:28.067Z,12.63
2023-09-12T15:45:55.812Z,7.05
2023-09-12T15:50:52.130Z,6.43
2023-09-12T15:53:19.535Z,11.63
2023-09-12T15:55:49.890Z,20.60
2023-09-12T15:58:17.439Z,10.32
2023-09-12T16:00:44.784Z,6.07
2023-09-12T16:03:12.815Z,3.70
2023-09-12T16:05:40.544Z,7.90
2023-09-12T16:08:09.080Z,7.85
2023-09-12T16:10:37.951Z,10.63
2023-09-12T16:13:05.789Z,7.80
2023-09-12T16:15:35.490Z,7.60
2023-09-12T16:18:03.586Z,10.60
2023-09-12T16:20:30.908Z,10.37
2023-09-12T16:22:58.323Z,16.98
2023-09-12T16:25:26.066Z,4.28
2023-09-12T16:27:54.036Z,10.32
2023-09-12T16:30:21.694Z,8.00
2023-09-12T16:32:49.486Z,6.85
2023-09-12T16:35:17.121Z,7.93
2023-09-12T16:37:44.498Z,4.43
2023-09-12T16:40:12.808Z,13.62
2023-09-12T16:42:40.600Z,26.55
2023-09-12T16:49:24.464Z,18.75
2023-09-12T16:52:10.825Z,21.12
2023-09-12T17:04:12.527Z,8.75
2023-09-12T17:08:03.970Z,11.05
2023-09-12T17:20:15.120Z,6.20
2023-09-12T17:22:43.163Z,7.62
2023-09-12T17:25:13.980Z,14.15
2023-09-12T17:27:41.918Z,11.88
2023-09-12T17:30:11.648Z,11.75
2023-09-12T17:32:39.118Z,9.05
2023-09-12T17:35:06.903Z,8.25
2023-09-12T17:37:35.209Z,9.30
2023-09-12T17:40:02.829Z,10.02
2023-09-12T17:42:32.102Z,11.12
2023-09-12T17:45:00.306Z,13.15
2023-09-12T17:47:28.379Z,11.48
2023-09-12T17:49:57.657Z,10.88
2023-09-12T17:52:25.487Z,11.35
2023-09-12T17:54:52.930Z,8.93
2023-09-12T17:57:20.418Z,5.97
2023-09-12T17:59:49.737Z,13.93
2023-09-12T18:02:17.182Z,9.68
2023-09-12T18:04:45.136Z,15.30
2023-09-12T18:07:12.773Z,14.52
2023-09-12T18:09:40.730Z,10.48
2023-09-12T18:12:08.574Z,10.25
2023-09-12T18:14:36.108Z,10.52
2023-09-12T18:17:03.917Z,12.93
2023-09-12T18:19:32.105Z,10.05
2023-09-12T18:22:01.256Z,13.17
2023-09-12T18:24:28.887Z,12.13
2023-09-12T18:26:59.838Z,15.37
2023-09-12T18:29:27.400Z,12.50
2023-09-12T18:31:55.737Z,15.55
2023-09-12T18:34:23.521Z,13.77
2023-09-12T18:36:51.130Z,10.73
2023-09-12T18:39:19.365Z,11.90
2023-09-12T18:41:48.028Z,19.05
2023-09-12T18:44:15.668Z,34.30
2023-09-12T18:46:43.333Z,47.15
2023-09-12T18:49:12.009Z,41.97
2023-09-12T18:51:39.756Z,34.47
2023-09-12T18:54:07.362Z,40.90
2023-09-12T18:56:35.124Z,27.25
2023-09-12T18:59:03.056Z,26.10
2023-09-12T19:01:30.797Z,18.90
2023-09-12T19:03:58.759Z,18.40
2023-09-12T19:06:26.278Z,8.70
2023-09-12T19:08:53.729Z,6.55
2023-09-12T19:11:23.464Z,9.60
2023-09-12T19:13:50.919Z,8.50
2023-09-12T19:16:18.556Z,10.23
2023-09-12T19:18:47.509Z,4.40
2023-09-12T19:21:14.936Z,5.60
2023-09-12T19:23:42.696Z,12.77
2023-09-12T19:26:10.681Z,10.07
2023-09-12T19:28:38.129Z,10.20
2023-09-12T19:31:05.709Z,11.73
2023-09-12T19:33:33.738Z,11.37
2023-09-12T19:36:01.291Z,8.13
2023-09-12T19:38:28.724Z,12.17
2023-09-12T19:41:00.978Z,9.20
2023-09-12T19:43:28.494Z,7.90
2023-09-12T19:45:57.587Z,7.63
2023-09-12T19:48:25.271Z,7.57
2023-09-12T19:50:52.839Z,6.07
2023-09-12T19:53:20.899Z,5.70
2023-09-12T19:55:59.463Z,7.53
2023-09-12T20:00:59.879Z,6.47
2023-09-12T20:03:28.597Z,6.83
2023-09-12T20:05:56.079Z,5.07
2023-09-12T20:08:24.254Z,7.93
2023-09-12T20:10:52.405Z,8.73
2023-09-12T20:13:19.987Z,8.30
2023-09-12T20:15:47.526Z,4.17
2023-09-12T20:18:15.399Z,6.50
2023-09-12T20:20:46.895Z,6.07
2023-09-12T20:23:14.842Z,8.13
2023-09-12T20:25:43.499Z,6.77
2023-09-12T20:28:13.103Z,5.28
2023-09-12T20:30:41.367Z,8.87
2023-09-12T20:33:08.906Z,5.97
2023-09-12T20:35:36.666Z,5.47
2023-09-12T20:38:06.169Z,5.30
2023-09-12T20:40:34.016Z,4.83
2023-09-12T20:43:01.646Z,10.00
2023-09-12T20:45:29.647Z,10.20
2023-09-12T20:47:57.110Z,7.37
2023-09-12T20:50:28.582Z,7.27
2023-09-12T20:53:06.303Z,9.63
2023-09-12T20:55:38.620Z,7.07
2023-09-12T20:58:06.740Z,6.00
2023-09-12T21:00:34.499Z,6.83
2023-09-12T21:03:02.120Z,9.50
2023-09-12T21:05:29.986Z,5.70
2023-09-12T21:07:58.250Z,9.27
2023-09-12T21:10:25.705Z,8.73
2023-09-12T21:12:53.485Z,9.77
2023-09-12T21:15:23.962Z,7.47
2023-09-12T21:17:52.013Z,6.53
2023-09-12T21:20:20.136Z,7.83
2023-09-12T21:22:47.690Z,5.87
2023-09-12T21:25:15.217Z,13.07
2023-09-12T21:27:43.033Z,10.33
2023-09-12T21:30:11.319Z,9.30
2023-09-12T21:32:38.718Z,11.70
2023-09-12T21:35:16.222Z,8.40
2023-09-12T21:37:44.865Z,7.23
2023-09-12T21:40:14.240Z,8.32
2023-09-12T21:42:42.109Z,5.87
2023-09-12T21:45:14.732Z,5.37
2023-09-12T21:47:44.143Z,6.70
2023-09-12T21:52:39.439Z,5.77
2023-09-12T21:55:08.601Z,5.55
2023-09-12T21:57:36.555Z,6.62
2023-09-12T22:00:24.681Z,13.07
2023-09-12T22:02:53.407Z,6.25
2023-09-12T22:05:21.216Z,9.23
2023-09-12T22:07:49.228Z,7.90
2023-09-12T22:10:17.902Z,5.15
2023-09-12T22:12:46.179Z,5.55
2023-09-12T22:15:13.852Z,6.15
2023-09-12T22:17:41.438Z,6.97
2023-09-12T22:20:13.936Z,6.60
2023-09-12T22:22:43.988Z,6.90
2023-09-12T22:25:12.100Z,7.80
2023-09-12T22:27:40.684Z,6.82
2023-09-12T22:30:09.252Z,7.28
2023-09-12T22:32:38.416Z,14.13
2023-09-12T22:35:06.083Z,6.63
2023-09-12T22:37:33.641Z,5.73
2023-09-12T22:40:01.064Z,7.57
2023-09-12T22:42:28.807Z,6.07
2023-09-12T22:44:56.393Z,9.60
2023-09-12T22:47:23.753Z,8.23
2023-09-12T22:49:52.582Z,7.07
2023-09-12T22:52:20.690Z,7.83
2023-09-12T22:54:48.108Z,9.40
2023-09-12T22:57:15.497Z,6.83
2023-09-12T22:59:43.215Z,8.27
2023-09-12T23:02:10.591Z,7.37
2023-09-12T23:04:38.036Z,6.00
2023-09-12T23:07:05.838Z,10.13
2023-09-12T23:09:33.414Z,6.83
2023-09-12T23:12:00.795Z,5.97
2023-09-12T23:14:28.567Z,8.00
2023-09-12T23:16:56.007Z,7.17
2023-09-12T23:19:23.580Z,7.27
2023-09-12T23:21:51.452Z,6.10
2023-09-12T23:24:18.873Z,6.77
2023-09-12T23:26:46.332Z,6.57
2023-09-12T23:29:14.039Z,7.20
2023-09-12T23:31:41.479Z,9.70
2023-09-12T23:34:08.917Z,9.37
2023-09-12T23:36:36.778Z,5.40
2023-09-12T23:39:05.798Z,6.67
2023-09-12T23:41:33.209Z,5.62
2023-09-12T23:44:00.810Z,7.77
2023-09-12T23:46:28.614Z,4.50
2023-09-12T23:48:55.971Z,6.47
2023-09-12T23:51:23.720Z,6.23
2023-09-12T23:53:50.963Z,5.07
2023-09-12T23:56:18.268Z,5.60
2023-09-12T23:58:45.984Z,5.57
